createdAt,value
2023-01-21T00:02:05.627Z,-0.82
2023-01-21T00:07:08.224Z,-0.82
2023-01-21T00:12:09.757Z,-0.98
2023-01-21T00:17:11.334Z,-1.15
2023-01-21T00:22:12.859Z,-1.26
2023-01-21T00:27:14.357Z,-1.49
2023-01-21T00:32:15.841Z,-1.65
2023-01-21T00:37:17.450Z,-1.81
2023-01-21T00:42:19.308Z,-1.90
2023-01-21T00:47:20.847Z,-1.97
2023-01-21T00:52:22.334Z,-2.15
2023-01-21T00:57:23.818Z,-2.22
2023-01-21T01:02:25.501Z,-2.14
2023-01-21T01:07:27.109Z,-2.17
2023-01-21T01:12:29.263Z,-2.44
2023-01-21T01:17:30.811Z,-2.52
2023-01-21T01:22:32.297Z,-3.02
2023-01-21T01:27:33.825Z,-2.33
2023-01-21T01:32:35.354Z,-1.74
2023-01-21T01:37:36.888Z,-1.53
2023-01-21T01:42:38.439Z,-1.49
2023-01-21T01:47:45.297Z,-1.47
2023-01-21T01:52:47.558Z,-1.57
2023-01-21T01:57:53.473Z,-1.56
2023-01-21T02:03:14.194Z,-1.53
2023-01-21T02:08:16.115Z,-1.51
2023-01-21T02:13:17.873Z,-1.54
2023-01-21T02:18:31.261Z,-1.61
2023-01-21T02:23:57.485Z,-1.69
2023-01-21T02:29:20.681Z,-1.64
2023-01-21T02:34:48.636Z,-1.62
2023-01-21T02:40:08.219Z,-1.72
2023-01-21T02:45:15.385Z,-2.34
2023-01-21T02:50:19.685Z,-2.70
2023-01-21T02:55:26.712Z,-2.94
2023-01-21T03:00:45.100Z,-3.34
2023-01-21T03:05:52.542Z,-3.77
2023-01-21T03:11:15.251Z,-3.71
2023-01-21T03:16:39.586Z,-3.16
2023-01-21T03:21:41.257Z,-2.51
2023-01-21T03:26:47.818Z,-2.35
2023-01-21T03:31:54.097Z,-2.24
2023-01-21T03:37:04.610Z,-2.22
2023-01-21T03:42:06.796Z,-2.28
2023-01-21T03:47:25.294Z,-2.31
2023-01-21T03:52:27.368Z,-2.33
2023-01-21T03:57:28.974Z,-2.35
2023-01-21T04:02:30.527Z,-2.31
2023-01-21T04:07:32.082Z,-2.29
2023-01-21T04:12:33.681Z,-2.24
2023-01-21T04:17:35.210Z,-2.60
2023-01-21T04:22:36.779Z,-2.68
2023-01-21T04:27:38.333Z,-2.78
2023-01-21T04:32:39.873Z,-3.03
2023-01-21T04:37:41.431Z,-3.70
2023-01-21T04:42:43.145Z,-3.73
2023-01-21T04:47:45.214Z,-3.76
2023-01-21T04:52:46.759Z,-3.30
2023-01-21T04:57:48.277Z,-2.64
2023-01-21T05:02:49.845Z,-2.42
2023-01-21T05:07:54.542Z,-2.30
2023-01-21T05:12:56.099Z,-2.36
2023-01-21T05:17:57.855Z,-2.22
2023-01-21T05:22:59.439Z,-2.10
2023-01-21T05:28:01.005Z,-2.07
2023-01-21T05:33:02.503Z,-1.99
2023-01-21T05:38:04.053Z,-1.93
2023-01-21T05:43:05.552Z,-1.79
2023-01-21T05:48:07.068Z,-1.85
2023-01-21T05:53:08.588Z,-2.43
2023-01-21T05:58:10.236Z,-2.60
2023-01-21T06:03:13.555Z,-2.92
2023-01-21T06:08:15.171Z,-2.50
2023-01-21T06:13:16.971Z,-2.41
2023-01-21T06:18:18.487Z,-2.74
2023-01-21T06:23:20.049Z,-3.18
2023-01-21T06:28:21.715Z,-2.37
2023-01-21T06:33:23.404Z,-1.56
2023-01-21T06:38:24.978Z,-1.35
2023-01-21T06:43:26.475Z,-1.25
2023-01-21T06:48:28.018Z,-1.17
2023-01-21T06:53:29.513Z,-1.11
2023-01-21T06:58:31.035Z,-1.07
2023-01-21T07:03:32.704Z,-1.23
2023-01-21T07:08:34.196Z,-1.41
2023-01-21T07:13:35.748Z,-1.60
2023-01-21T07:18:37.236Z,-1.78
2023-01-21T07:23:38.811Z,-1.81
2023-01-21T07:28:40.353Z,-1.79
2023-01-21T07:33:41.895Z,-2.51
2023-01-21T07:38:43.502Z,-3.21
2023-01-21T07:43:47.813Z,-3.80
2023-01-21T07:48:51.674Z,-4.25
2023-01-21T07:53:56.651Z,-2.66
2023-01-21T07:58:58.196Z,-1.51
2023-01-21T08:04:00.894Z,-1.19
2023-01-21T08:09:02.463Z,-1.02
2023-01-21T08:14:03.978Z,-0.93
2023-01-21T08:19:05.527Z,-0.81
2023-01-21T08:24:07.235Z,-0.66
2023-01-21T08:29:08.805Z,-0.55
2023-01-21T08:34:10.334Z,-0.72
2023-01-21T08:39:16.428Z,-0.99
2023-01-21T08:44:18.005Z,-1.34
2023-01-21T08:49:19.589Z,-2.30
2023-01-21T08:54:21.415Z,-2.61
2023-01-21T08:59:28.552Z,-3.22
2023-01-21T09:17:20.690Z,-0.30
2023-01-21T09:22:22.489Z,-0.02
2023-01-21T09:33:42.175Z,0.32
2023-01-21T09:45:05.890Z,0.63
2023-01-21T09:50:20.838Z,0.75
2023-01-21T09:55:22.263Z,0.74
2023-01-21T10:00:36.770Z,0.58
2023-01-21T10:05:53.034Z,0.41
2023-01-21T10:11:12.084Z,0.38
2023-01-21T10:16:20.871Z,0.19
2023-01-21T10:21:29.530Z,-0.39
2023-01-21T10:26:33.310Z,-0.32
2023-01-21T10:31:41.610Z,-0.41
2023-01-21T10:36:48.041Z,-0.40
2023-01-21T10:42:11.134Z,-0.61
2023-01-21T10:47:28.091Z,-0.59
2023-01-21T10:52:45.159Z,-0.66
2023-01-21T10:57:53.354Z,-0.85
2023-01-21T11:03:00.247Z,-1.50
2023-01-21T11:08:02.583Z,-1.90
2023-01-21T11:13:06.311Z,-0.82
2023-01-21T11:18:51.316Z,-0.01
2023-01-21T11:23:56.980Z,0.20
2023-01-21T11:29:09.427Z,0.37
2023-01-21T11:34:17.481Z,0.59
2023-01-21T11:39:23.784Z,0.94
2023-01-21T11:44:25.589Z,1.09
2023-01-21T11:49:34.281Z,0.90
2023-01-21T11:54:39.541Z,0.84
2023-01-21T11:59:45.708Z,0.82
2023-01-21T12:05:13.458Z,0.74
2023-01-21T12:10:32.249Z,0.79
2023-01-21T12:15:48.987Z,0.85
2023-01-21T12:21:20.111Z,0.60
2023-01-21T12:26:25.399Z,0.38
2023-01-21T12:31:44.466Z,0.10
2023-01-21T12:37:15.501Z,0.27
2023-01-21T12:42:26.336Z,0.13
2023-01-21T12:47:31.977Z,0.46
2023-01-21T12:52:48.492Z,0.77
2023-01-21T12:58:03.606Z,0.55
2023-01-21T13:03:33.286Z,0.30
2023-01-21T13:08:54.779Z,-0.30
2023-01-21T13:14:08.178Z,-0.42
2023-01-21T13:19:13.766Z,-0.18
2023-01-21T13:24:21.131Z,0.82
2023-01-21T13:29:26.537Z,1.29
2023-01-21T13:34:45.129Z,1.44
2023-01-21T13:39:49.248Z,1.44
2023-01-21T13:45:16.753Z,1.40
2023-01-21T13:50:51.380Z,1.33
2023-01-21T13:56:01.604Z,1.27
2023-01-21T14:01:25.581Z,1.34
2023-01-21T14:06:32.416Z,1.42
2023-01-21T14:11:43.822Z,1.37
2023-01-21T14:17:19.015Z,1.33
2023-01-21T14:22:42.150Z,1.25
2023-01-21T14:28:07.502Z,1.29
2023-01-21T14:33:17.477Z,1.26
2023-01-21T14:38:44.789Z,1.26
2023-01-21T14:43:49.124Z,1.22
2023-01-21T14:49:08.414Z,1.21
2023-01-21T14:54:25.393Z,1.22
2023-01-21T14:59:46.164Z,1.21
2023-01-21T15:04:59.865Z,1.27
2023-01-21T15:10:10.450Z,1.27
2023-01-21T15:15:34.329Z,1.22
2023-01-21T15:20:53.003Z,1.05
2023-01-21T15:26:12.759Z,0.64
2023-01-21T15:31:42.363Z,0.09
2023-01-21T15:36:47.853Z,0.00
2023-01-21T15:42:21.219Z,-0.05
2023-01-21T15:47:41.163Z,-0.05
2023-01-21T15:52:57.136Z,-0.26
2023-01-21T15:58:36.322Z,-0.28
2023-01-21T16:03:56.156Z,-0.43
2023-01-21T16:09:03.063Z,-0.43
2023-01-21T16:14:29.299Z,-0.02
2023-01-21T16:19:35.309Z,0.29
2023-01-21T16:24:47.566Z,0.37
2023-01-21T16:30:02.178Z,0.30
2023-01-21T16:35:04.097Z,0.14
2023-01-21T16:40:08.670Z,-0.02
2023-01-21T16:45:21.044Z,-0.17
2023-01-21T16:50:32.803Z,-0.27
2023-01-21T16:55:44.786Z,-0.34
2023-01-21T17:01:16.022Z,-0.30
2023-01-21T17:06:22.619Z,-0.21
2023-01-21T17:11:26.251Z,-0.15
2023-01-21T17:16:32.834Z,0.11
2023-01-21T17:21:45.037Z,0.11
2023-01-21T17:26:50.728Z,-0.16
2023-01-21T17:31:56.624Z,-0.44
2023-01-21T17:36:59.240Z,-0.65
2023-01-21T17:42:04.714Z,-0.88
2023-01-21T17:47:06.301Z,-0.99
2023-01-21T17:52:19.503Z,-1.17
2023-01-21T17:57:35.422Z,-1.34
2023-01-21T18:02:36.982Z,-1.51
2023-01-21T18:07:38.598Z,-1.94
2023-01-21T18:12:40.203Z,-2.43
2023-01-21T18:17:47.067Z,-2.51
2023-01-21T18:22:49.811Z,-2.61
2023-01-21T18:27:54.837Z,-3.07
2023-01-21T18:32:56.738Z,-3.63
2023-01-21T18:37:58.252Z,-2.96
2023-01-21T18:42:59.752Z,-2.16
2023-01-21T18:48:01.397Z,-1.76
2023-01-21T18:53:02.948Z,-1.71
2023-01-21T18:58:11.143Z,-1.63
2023-01-21T19:03:14.104Z,-1.64
2023-01-21T19:08:18.440Z,-1.69
2023-01-21T19:13:20.547Z,-1.62
2023-01-21T19:18:22.024Z,-1.59
2023-01-21T19:23:23.747Z,-1.59
2023-01-21T19:28:25.477Z,-1.54
2023-01-21T19:33:27.020Z,-1.51
2023-01-21T19:38:28.679Z,-1.50
2023-01-21T19:43:30.225Z,-1.74
2023-01-21T19:48:31.955Z,-2.04
2023-01-21T19:53:33.493Z,-2.41
2023-01-21T19:58:35.762Z,-2.58
2023-01-21T20:03:38.779Z,-2.88
2023-01-21T20:08:43.708Z,-3.47
2023-01-21T20:13:45.277Z,-3.68
2023-01-21T20:18:48.267Z,-3.33
2023-01-21T20:23:49.840Z,-2.62
2023-01-21T20:28:54.438Z,-2.08
2023-01-21T20:33:56.370Z,-1.84
2023-01-21T20:38:58.095Z,-1.83
2023-01-21T20:43:59.684Z,-1.81
2023-01-21T20:49:02.091Z,-1.76
2023-01-21T20:54:03.930Z,-1.76
2023-01-21T20:59:05.489Z,-1.70
2023-01-21T21:04:07.053Z,-1.71
2023-01-21T21:09:09.193Z,-1.72
2023-01-21T21:14:13.507Z,-1.61
2023-01-21T21:19:14.991Z,-1.53
2023-01-21T21:24:16.576Z,-1.35
2023-01-21T21:29:18.084Z,-1.16
2023-01-21T21:34:22.103Z,-1.01
2023-01-21T21:39:23.595Z,-0.86
2023-01-21T21:44:25.136Z,-0.71
2023-01-21T21:49:27.855Z,-0.46
2023-01-21T21:54:29.876Z,-0.38
2023-01-21T21:59:31.480Z,-0.37
2023-01-21T22:04:33.387Z,-0.21
2023-01-21T22:09:34.936Z,0.06
2023-01-21T22:14:36.450Z,0.24
2023-01-21T22:19:38.024Z,0.38
2023-01-21T22:24:39.544Z,0.46
2023-01-21T22:29:41.059Z,0.49
2023-01-21T22:34:43.960Z,0.35
2023-01-21T22:39:45.499Z,0.58
2023-01-21T22:44:46.997Z,0.74
2023-01-21T22:49:49.242Z,0.83
2023-01-21T22:54:51.342Z,0.75
2023-01-21T22:59:52.876Z,0.67
2023-01-21T23:04:54.437Z,0.77
2023-01-21T23:09:56.089Z,0.86
2023-01-21T23:14:57.582Z,0.93
2023-01-21T23:19:59.115Z,0.84
2023-01-21T23:25:00.634Z,0.80
2023-01-21T23:30:02.177Z,0.80
2023-01-21T23:35:03.844Z,0.81
2023-01-21T23:40:06.540Z,0.77
2023-01-21T23:45:08.498Z,0.56
2023-01-21T23:50:10.562Z,0.50
2023-01-21T23:55:12.785Z,0.48
